sensor_id;sensor_type;location;lat;lon;timestamp;pressure;altitude;pressure_sealevel;temperature;humidity
9746;BME280;4912;50.836;12.958;2023-02-28T00:01:17;98994.56;;;1.10;76.40
9746;BME280;4912;50.836;12.958;2023-02-28T00:03:50;98992.28;;;1.12;76.67
9746;BME280;4912;50.836;12.958;2023-02-28T00:06:23;98990.28;;;1.09;76.20
9746;BME280;4912;50.836;12.958;2023-02-28T00:08:54;98992.22;;;1.08;75.75
9746;BME280;4912;50.836;12.958;2023-02-28T00:11:25;98987.53;;;1.05;76.04
9746;BME280;4912;50.836;12.958;2023-02-28T00:13:56;98989.06;;;1.06;76.17
9746;BME280;4912;50.836;12.958;2023-02-28T00:16:27;98995.28;;;1.03;76.65
9746;BME280;4912;50.836;12.958;2023-02-28T00:19:00;98988.69;;;1.04;76.40
9746;BME280;4912;50.836;12.958;2023-02-28T00:21:30;98991.75;;;0.99;76.18
9746;BME280;4912;50.836;12.958;2023-02-28T00:24:01;98985.13;;;1.00;76.08
9746;BME280;4912;50.836;12.958;2023-02-28T00:26:32;98991.72;;;0.96;75.64
9746;BME280;4912;50.836;12.958;2023-02-28T00:29:02;98995.56;;;0.91;75.94
9746;BME280;4912;50.836;12.958;2023-02-28T00:31:32;98992.88;;;0.95;76.24
9746;BME280;4912;50.836;12.958;2023-02-28T00:34:06;98991.31;;;0.94;76.52
9746;BME280;4912;50.836;12.958;2023-02-28T00:36:36;98987.47;;;0.98;76.16
9746;BME280;4912;50.836;12.958;2023-02-28T00:39:08;98986.31;;;0.99;75.96
9746;BME280;4912;50.836;12.958;2023-02-28T00:41:38;98987.75;;;0.90;75.97
9746;BME280;4912;50.836;12.958;2023-02-28T00:44:09;98982.72;;;0.92;76.54
9746;BME280;4912;50.836;12.958;2023-02-28T00:46:39;98991.34;;;0.97;76.58
9746;BME280;4912;50.836;12.958;2023-02-28T00:49:12;98987.41;;;0.95;76.47
9746;BME280;4912;50.836;12.958;2023-02-28T00:51:42;98980.06;;;0.99;76.62
9746;BME280;4912;50.836;12.958;2023-02-28T00:54:16;98976.56;;;0.98;76.15
9746;BME280;4912;50.836;12.958;2023-02-28T00:56:47;98979.63;;;0.93;76.46
9746;BME280;4912;50.836;12.958;2023-02-28T00:59:18;98976.16;;;0.96;76.93
9746;BME280;4912;50.836;12.958;2023-02-28T01:01:48;98973.41;;;0.93;76.40
9746;BME280;4912;50.836;12.958;2023-02-28T01:04:23;98977.28;;;0.92;76.13
9746;BME280;4912;50.836;12.958;2023-02-28T01:06:54;98980.34;;;0.87;76.12
9746;BME280;4912;50.836;12.958;2023-02-28T01:09:24;98973.31;;;0.82;76.27
9746;BME280;4912;50.836;12.958;2023-02-28T01:11:55;98978.69;;;0.75;76.14
9746;BME280;4912;50.836;12.958;2023-02-28T01:14:25;98973.22;;;0.75;76.39
9746;BME280;4912;50.836;12.958;2023-02-28T01:16:56;98972.78;;;0.69;76.69
9746;BME280;4912;50.836;12.958;2023-02-28T01:19:34;98973.06;;;0.61;77.11
9746;BME280;4912;50.836;12.958;2023-02-28T01:22:06;98979.63;;;0.56;77.23
9746;BME280;4912;50.836;12.958;2023-02-28T01:24:37;98967.50;;;0.50;77.30
9746;BME280;4912;50.836;12.958;2023-02-28T01:27:07;98969.78;;;0.45;77.32
9746;BME280;4912;50.836;12.958;2023-02-28T01:29:38;98969.78;;;0.45;77.40
9746;BME280;4912;50.836;12.958;2023-02-28T01:32:09;98961.53;;;0.37;77.40
9746;BME280;4912;50.836;12.958;2023-02-28T01:34:42;98961.09;;;0.32;77.63
9746;BME280;4912;50.836;12.958;2023-02-28T01:37:12;98959.50;;;0.31;77.63
9746;BME280;4912;50.836;12.958;2023-02-28T01:39:43;98965.75;;;0.31;77.52
9746;BME280;4912;50.836;12.958;2023-02-28T01:42:13;98959.06;;;0.25;77.64
9746;BME280;4912;50.836;12.958;2023-02-28T01:45:16;98961.38;;;0.23;77.37
9746;BME280;4912;50.836;12.958;2023-02-28T01:47:52;98965.88;;;0.12;78.02
9746;BME280;4912;50.836;12.958;2023-02-28T01:50:31;98966.97;;;0.04;78.60
9746;BME280;4912;50.836;12.958;2023-02-28T01:53:06;98957.56;;;-0.02;79.03
9746;BME280;4912;50.836;12.958;2023-02-28T01:55:41;98961.44;;;-0.03;79.31
9746;BME280;4912;50.836;12.958;2023-02-28T01:58:16;98961.44;;;-0.03;79.34
9746;BME280;4912;50.836;12.958;2023-02-28T02:00:47;98957.56;;;-0.02;79.12
9746;BME280;4912;50.836;12.958;2023-02-28T02:03:20;98956.75;;;-0.06;79.03
9746;BME280;4912;50.836;12.958;2023-02-28T02:05:54;98950.50;;;-0.07;79.01
9746;BME280;4912;50.836;12.958;2023-02-28T02:08:26;98956.75;;;-0.06;78.84
9746;BME280;4912;50.836;12.958;2023-02-28T02:11:00;98957.81;;;-0.11;78.52
9746;BME280;4912;50.836;12.958;2023-02-28T02:13:48;98950.69;;;-0.22;78.89
9746;BME280;4912;50.836;12.958;2023-02-28T02:16:38;98958.00;;;-0.26;79.48
9746;BME280;4912;50.836;12.958;2023-02-28T02:19:44;98950.56;;;-0.29;79.48
9746;BME280;4912;50.836;12.958;2023-02-28T02:25:53;98948.50;;;-0.39;80.07
9746;BME280;4912;50.836;12.958;2023-02-28T02:28:54;98943.06;;;-0.39;80.05
9746;BME280;4912;50.836;12.958;2023-02-28T02:31:51;98943.84;;;-0.39;79.52
9746;BME280;4912;50.836;12.958;2023-02-28T02:34:50;98946.22;;;-0.37;79.85
9746;BME280;4912;50.836;12.958;2023-02-28T02:37:30;98939.66;;;-0.33;79.60
9746;BME280;4912;50.836;12.958;2023-02-28T02:40:12;98938.16;;;-0.30;79.40
9746;BME280;4912;50.836;12.958;2023-02-28T02:42:49;98943.63;;;-0.27;79.31
9746;BME280;4912;50.836;12.958;2023-02-28T02:45:26;98939.34;;;-0.28;79.14
9746;BME280;4912;50.836;12.958;2023-02-28T02:48:04;98941.69;;;-0.26;79.11
9746;BME280;4912;50.836;12.958;2023-02-28T02:50:42;98940.19;;;-0.24;79.29
9746;BME280;4912;50.836;12.958;2023-02-28T02:53:24;98947.25;;;-0.19;79.23
9746;BME280;4912;50.836;12.958;2023-02-28T02:56:01;98955.03;;;-0.18;78.95
9746;BME280;4912;50.836;12.958;2023-02-28T02:58:35;98948.47;;;-0.13;78.94
9746;BME280;4912;50.836;12.958;2023-02-28T03:01:12;98953.97;;;-0.10;78.75
9746;BME280;4912;50.836;12.958;2023-02-28T03:03:57;98962.47;;;-0.11;79.63
9746;BME280;4912;50.836;12.958;2023-02-28T03:06:32;98954.38;;;-0.08;79.65
9746;BME280;4912;50.836;12.958;2023-02-28T03:09:02;98963.72;;;-0.05;79.30
9746;BME280;4912;50.836;12.958;2023-02-28T03:11:35;98957.22;;;-0.01;79.22
9746;BME280;4912;50.836;12.958;2023-02-28T03:14:25;98964.59;;;0.03;79.39
9746;BME280;4912;50.836;12.958;2023-02-28T03:17:35;98957.66;;;0.05;79.55
9746;BME280;4912;50.836;12.958;2023-02-28T03:20:21;98954.97;;;0.09;79.58
9746;BME280;4912;50.836;12.958;2023-02-28T03:23:08;98938.69;;;0.12;79.69
9746;BME280;4912;50.836;12.958;2023-02-28T03:25:54;98942.25;;;0.16;79.92
9746;BME280;4912;50.836;12.958;2023-02-28T03:28:32;98945.75;;;0.17;79.98
9746;BME280;4912;50.836;12.958;2023-02-28T03:31:10;98938.81;;;0.23;79.96
9746;BME280;4912;50.836;12.958;2023-02-28T03:33:46;98940.84;;;0.29;79.78
9746;BME280;4912;50.836;12.958;2023-02-28T03:36:26;98942.06;;;0.35;79.19
9746;BME280;4912;50.836;12.958;2023-02-28T03:39:04;98934.28;;;0.34;79.23
9746;BME280;4912;50.836;12.958;2023-02-28T03:41:40;98941.31;;;0.38;79.12
9746;BME280;4912;50.836;12.958;2023-02-28T03:44:16;98937.91;;;0.45;79.41
9746;BME280;4912;50.836;12.958;2023-02-28T03:46:54;98945.72;;;0.47;79.14
9746;BME280;4912;50.836;12.958;2023-02-28T03:49:31;98945.72;;;0.50;79.17
9746;BME280;4912;50.836;12.958;2023-02-28T03:52:06;98942.66;;;0.52;79.38
9746;BME280;4912;50.836;12.958;2023-02-28T03:54:42;98943.03;;;0.54;79.18
9746;BME280;4912;50.836;12.958;2023-02-28T03:57:20;98948.91;;;0.56;79.39
9746;BME280;4912;50.836;12.958;2023-02-28T03:59:57;98942.72;;;0.59;79.21
9746;BME280;4912;50.836;12.958;2023-02-28T04:02:38;98949.72;;;0.60;79.08
9746;BME280;4912;50.836;12.958;2023-02-28T04:05:08;98956.38;;;0.62;79.03
9746;BME280;4912;50.836;12.958;2023-02-28T04:07:41;98959.81;;;0.59;78.89
9746;BME280;4912;50.836;12.958;2023-02-28T04:10:16;98941.94;;;0.58;79.07
9746;BME280;4912;50.836;12.958;2023-02-28T04:12:46;98946.59;;;0.58;79.20
9746;BME280;4912;50.836;12.958;2023-02-28T04:15:17;98951.25;;;0.57;78.99
9746;BME280;4912;50.836;12.958;2023-02-28T04:17:51;98953.91;;;0.50;78.97
9746;BME280;4912;50.836;12.958;2023-02-28T04:20:22;98948.81;;;0.49;79.24
9746;BME280;4912;50.836;12.958;2023-02-28T04:22:52;98952.31;;;0.46;79.49
9746;BME280;4912;50.836;12.958;2023-02-28T04:25:25;98941.75;;;0.40;79.93
9746;BME280;4912;50.836;12.958;2023-02-28T04:27:55;98949.50;;;0.38;79.94
9746;BME280;4912;50.836;12.958;2023-02-28T04:30:26;98952.22;;;0.38;80.11
9746;BME280;4912;50.836;12.958;2023-02-28T04:32:56;98954.97;;;0.42;80.36
9746;BME280;4912;50.836;12.958;2023-02-28T04:35:26;98959.63;;;0.41;80.19
9746;BME280;4912;50.836;12.958;2023-02-28T04:37:57;98954.25;;;0.45;80.08
9746;BME280;4912;50.836;12.958;2023-02-28T04:40:30;98958.91;;;0.45;79.92
9746;BME280;4912;50.836;12.958;2023-02-28T04:43:00;98957.63;;;0.35;80.19
9746;BME280;4912;50.836;12.958;2023-02-28T04:45:31;98962.63;;;0.29;80.37
9746;BME280;4912;50.836;12.958;2023-02-28T04:48:01;98961.84;;;0.29;80.59
9746;BME280;4912;50.836;12.958;2023-02-28T04:50:32;98966.84;;;0.27;80.56
9746;BME280;4912;50.836;12.958;2023-02-28T04:53:02;98962.13;;;0.20;80.62
9746;BME280;4912;50.836;12.958;2023-02-28T04:55:35;98975.38;;;0.25;80.78
9746;BME280;4912;50.836;12.958;2023-02-28T04:58:07;98976.13;;;0.22;80.64
9746;BME280;4912;50.836;12.958;2023-02-28T05:00:37;98981.19;;;0.24;80.20
9746;BME280;4912;50.836;12.958;2023-02-28T05:03:08;98988.97;;;0.22;80.28
9746;BME280;4912;50.836;12.958;2023-02-28T05:05:38;98981.47;;;0.12;80.63
9746;BME280;4912;50.836;12.958;2023-02-28T05:08:09;98985.69;;;0.09;80.65
9746;BME280;4912;50.836;12.958;2023-02-28T05:10:42;98982.53;;;0.07;80.72
9746;BME280;4912;50.836;12.958;2023-02-28T05:13:12;98981.72;;;0.03;81.21
9746;BME280;4912;50.836;12.958;2023-02-28T05:15:43;98976.28;;;0.03;81.06
9746;BME280;4912;50.836;12.958;2023-02-28T05:18:13;98983.22;;;0.00;81.10
9746;BME280;4912;50.836;12.958;2023-02-28T05:20:44;98982.41;;;-0.04;81.53
9746;BME280;4912;50.836;12.958;2023-02-28T05:23:15;98985.81;;;-0.10;81.56
9746;BME280;4912;50.836;12.958;2023-02-28T05:25:54;98991.22;;;-0.14;81.95
9746;BME280;4912;50.836;12.958;2023-02-28T05:28:25;98988.44;;;-0.17;82.10
9746;BME280;4912;50.836;12.958;2023-02-28T05:30:55;98987.28;;;-0.16;81.87
9746;BME280;4912;50.836;12.958;2023-02-28T05:33:26;98990.00;;;-0.16;81.95
9746;BME280;4912;50.836;12.958;2023-02-28T05:35:56;98988.75;;;-0.22;82.41
9746;BME280;4912;50.836;12.958;2023-02-28T05:38:27;98993.03;;;-0.21;82.36
9746;BME280;4912;50.836;12.958;2023-02-28T05:41:00;99000.06;;;-0.20;82.08
9746;BME280;4912;50.836;12.958;2023-02-28T05:43:30;98997.69;;;-0.22;82.29
9746;BME280;4912;50.836;12.958;2023-02-28T05:46:03;98998.84;;;-0.23;82.26
9746;BME280;4912;50.836;12.958;2023-02-28T05:48:39;98997.34;;;-0.20;81.76
9746;BME280;4912;50.836;12.958;2023-02-28T05:51:12;99002.00;;;-0.21;81.59
9746;BME280;4912;50.836;12.958;2023-02-28T05:53:43;98998.47;;;-0.21;81.72
9746;BME280;4912;50.836;12.958;2023-02-28T05:56:17;98994.63;;;-0.20;81.50
9746;BME280;4912;50.836;12.958;2023-02-28T05:58:48;98995.34;;;-0.23;81.14
9746;BME280;4912;50.836;12.958;2023-02-28T06:01:25;99004.28;;;-0.23;81.01
9746;BME280;4912;50.836;12.958;2023-02-28T06:04:02;99002.66;;;-0.27;80.80
9746;BME280;4912;50.836;12.958;2023-02-28T06:06:38;99004.56;;;-0.31;81.01
9746;BME280;4912;50.836;12.958;2023-02-28T06:09:08;99002.63;;;-0.31;80.95
9746;BME280;4912;50.836;12.958;2023-02-28T06:11:42;99013.13;;;-0.29;80.96
9746;BME280;4912;50.836;12.958;2023-02-28T06:14:17;99022.53;;;-0.23;80.71
9746;BME280;4912;50.836;12.958;2023-02-28T06:16:48;99018.28;;;-0.24;80.52
9746;BME280;4912;50.836;12.958;2023-02-28T06:19:19;99019.47;;;-0.22;80.46
9746;BME280;4912;50.836;12.958;2023-02-28T06:21:53;99024.19;;;-0.19;80.30
9746;BME280;4912;50.836;12.958;2023-02-28T06:24:27;99018.78;;;-0.15;79.99
9746;BME280;4912;50.836;12.958;2023-02-28T06:27:01;99033.13;;;-0.18;79.92
9746;BME280;4912;50.836;12.958;2023-02-28T06:29:33;99031.56;;;-0.19;80.40
9746;BME280;4912;50.836;12.958;2023-02-28T06:32:06;99035.53;;;-0.13;80.32
9746;BME280;4912;50.836;12.958;2023-02-28T06:34:37;99034.06;;;-0.07;80.37
9746;BME280;4912;50.836;12.958;2023-02-28T06:37:09;99038.44;;;0.01;79.82
9746;BME280;4912;50.836;12.958;2023-02-28T06:39:39;99039.31;;;0.09;79.35
9746;BME280;4912;50.836;12.958;2023-02-28T06:42:15;99043.25;;;0.11;79.09
9746;BME280;4912;50.836;12.958;2023-02-28T06:44:46;99044.06;;;0.15;79.18
9746;BME280;4912;50.836;12.958;2023-02-28T06:47:17;99054.63;;;0.20;78.87
9746;BME280;4912;50.836;12.958;2023-02-28T06:49:47;99048.09;;;0.25;78.82
9746;BME280;4912;50.836;12.958;2023-02-28T06:52:18;99061.34;;;0.26;78.63
9746;BME280;4912;50.836;12.958;2023-02-28T06:54:49;99062.22;;;0.34;78.20
9746;BME280;4912;50.836;12.958;2023-02-28T06:57:31;99061.09;;;0.38;77.67
9746;BME280;4912;50.836;12.958;2023-02-28T07:00:05;99058.94;;;0.51;77.39
9746;BME280;4912;50.836;12.958;2023-02-28T07:02:38;99064.88;;;0.60;76.93
9746;BME280;4912;50.836;12.958;2023-02-28T07:05:08;99062.69;;;0.73;76.36
9746;BME280;4912;50.836;12.958;2023-02-28T07:07:39;99064.81;;;0.90;75.87
9746;BME280;4912;50.836;12.958;2023-02-28T07:10:12;99066.97;;;1.07;75.00
9746;BME280;4912;50.836;12.958;2023-02-28T07:12:48;99068.34;;;1.28;73.61
9746;BME280;4912;50.836;12.958;2023-02-28T07:15:19;99075.97;;;1.52;72.63
9746;BME280;4912;50.836;12.958;2023-02-28T07:17:49;99080.50;;;1.81;71.35
9746;BME280;4912;50.836;12.958;2023-02-28T07:20:20;99078.28;;;1.97;70.10
9746;BME280;4912;50.836;12.958;2023-02-28T07:22:51;99077.28;;;2.23;68.94
9746;BME280;4912;50.836;12.958;2023-02-28T07:25:23;99075.84;;;2.47;67.85
9746;BME280;4912;50.836;12.958;2023-02-28T07:27:58;99075.97;;;2.75;66.72
9746;BME280;4912;50.836;12.958;2023-02-28T07:30:29;99083.13;;;3.12;64.62
9746;BME280;4912;50.836;12.958;2023-02-28T07:32:59;99083.19;;;3.51;62.71
9746;BME280;4912;50.836;12.958;2023-02-28T07:35:30;99076.94;;;3.79;60.82
9746;BME280;4912;50.836;12.958;2023-02-28T07:38:01;99075.72;;;4.22;58.59
9746;BME280;4912;50.836;12.958;2023-02-28T07:40:35;99076.34;;;4.76;57.36
9746;BME280;4912;50.836;12.958;2023-02-28T07:43:08;99081.31;;;5.06;56.22
9746;BME280;4912;50.836;12.958;2023-02-28T07:45:38;99078.28;;;5.52;54.92
9746;BME280;4912;50.836;12.958;2023-02-28T07:48:09;99075.50;;;6.07;52.48
9746;BME280;4912;50.836;12.958;2023-02-28T07:50:40;99074.94;;;6.64;50.02
9746;BME280;4912;50.836;12.958;2023-02-28T07:53:10;99076.41;;;7.59;48.00
9746;BME280;4912;50.836;12.958;2023-02-28T07:55:40;99077.03;;;8.40;45.34
9746;BME280;4912;50.836;12.958;2023-02-28T07:58:13;99075.44;;;8.82;44.05
9746;BME280;4912;50.836;12.958;2023-02-28T08:00:44;99071.03;;;9.57;42.17
9746;BME280;4912;50.836;12.958;2023-02-28T08:03:15;99076.97;;;10.52;40.00
9746;BME280;4912;50.836;12.958;2023-02-28T08:05:46;99070.16;;;10.41;39.24
9746;BME280;4912;50.836;12.958;2023-02-28T08:08:16;99064.19;;;10.71;38.59
9746;BME280;4912;50.836;12.958;2023-02-28T08:10:47;99073.63;;;9.96;39.21
9746;BME280;4912;50.836;12.958;2023-02-28T08:13:20;99076.06;;;9.62;40.10
9746;BME280;4912;50.836;12.958;2023-02-28T08:15:51;99077.34;;;9.90;38.61
9746;BME280;4912;50.836;12.958;2023-02-28T08:18:21;99066.72;;;10.37;38.42
9746;BME280;4912;50.836;12.958;2023-02-28T08:20:52;99066.69;;;10.94;37.21
9746;BME280;4912;50.836;12.958;2023-02-28T08:23:24;99069.97;;;11.43;36.07
9746;BME280;4912;50.836;12.958;2023-02-28T08:25:55;99069.41;;;11.61;35.16
9746;BME280;4912;50.836;12.958;2023-02-28T08:28:29;99066.28;;;11.97;34.58
9746;BME280;4912;50.836;12.958;2023-02-28T08:31:00;99069.84;;;12.45;33.45
9746;BME280;4912;50.836;12.958;2023-02-28T08:33:30;99070.69;;;13.50;32.62
9746;BME280;4912;50.836;12.958;2023-02-28T08:36:01;99069.22;;;14.08;30.24
9746;BME280;4912;50.836;12.958;2023-02-28T08:38:32;99068.47;;;14.98;28.77
9746;BME280;4912;50.836;12.958;2023-02-28T08:41:04;99060.88;;;15.50;28.03
9746;BME280;4912;50.836;12.958;2023-02-28T08:43:39;99074.03;;;16.01;27.11
9746;BME280;4912;50.836;12.958;2023-02-28T08:46:14;99072.16;;;16.45;26.73
9746;BME280;4912;50.836;12.958;2023-02-28T08:48:45;99077.69;;;16.93;26.14
9746;BME280;4912;50.836;12.958;2023-02-28T08:51:16;99078.50;;;17.08;25.31
9746;BME280;4912;50.836;12.958;2023-02-28T08:53:54;99080.72;;;17.18;25.19
9746;BME280;4912;50.836;12.958;2023-02-28T08:56:27;99081.75;;;17.21;24.68
9746;BME280;4912;50.836;12.958;2023-02-28T08:59:02;99086.03;;;17.61;24.74
9746;BME280;4912;50.836;12.958;2023-02-28T09:01:32;99086.66;;;17.55;23.78
9746;BME280;4912;50.836;12.958;2023-02-28T09:04:04;99086.50;;;17.59;24.31
9746;BME280;4912;50.836;12.958;2023-02-28T09:06:35;99079.91;;;17.77;24.12
9746;BME280;4912;50.836;12.958;2023-02-28T09:09:06;99068.31;;;17.84;23.79
9746;BME280;4912;50.836;12.958;2023-02-28T09:11:37;99069.03;;;17.99;23.92
9746;BME280;4912;50.836;12.958;2023-02-28T09:14:10;99064.19;;;18.14;23.17
9746;BME280;4912;50.836;12.958;2023-02-28T09:16:41;99063.84;;;17.92;23.24
9746;BME280;4912;50.836;12.958;2023-02-28T09:19:11;99073.59;;;17.96;23.61
9746;BME280;4912;50.836;12.958;2023-02-28T09:21:42;99066.72;;;17.97;23.13
9746;BME280;4912;50.836;12.958;2023-02-28T09:24:12;99071.44;;;17.71;23.42
9746;BME280;4912;50.836;12.958;2023-02-28T09:26:43;99071.91;;;17.70;23.23
9746;BME280;4912;50.836;12.958;2023-02-28T09:29:32;99069.19;;;17.90;22.88
9746;BME280;4912;50.836;12.958;2023-02-28T09:32:04;99064.22;;;17.65;22.85
9746;BME280;4912;50.836;12.958;2023-02-28T09:34:35;99069.97;;;17.76;23.11
9746;BME280;4912;50.836;12.958;2023-02-28T09:37:06;99077.22;;;17.38;23.33
9746;BME280;4912;50.836;12.958;2023-02-28T09:39:37;99074.53;;;17.00;23.55
9746;BME280;4912;50.836;12.958;2023-02-28T09:42:12;99078.53;;;16.22;23.38
9746;BME280;4912;50.836;12.958;2023-02-28T09:44:52;99079.38;;;15.38;24.46
9746;BME280;4912;50.836;12.958;2023-02-28T09:47:27;99072.72;;;15.27;25.54
9746;BME280;4912;50.836;12.958;2023-02-28T09:50:17;99062.75;;;15.02;25.45
9746;BME280;4912;50.836;12.958;2023-02-28T09:52:56;99068.19;;;14.69;25.96
9746;BME280;4912;50.836;12.958;2023-02-28T09:55:33;99068.19;;;14.87;25.48
9746;BME280;4912;50.836;12.958;2023-02-28T09:58:19;99072.22;;;14.41;25.83
9746;BME280;4912;50.836;12.958;2023-02-28T10:00:59;99076.97;;;13.73;26.16
9746;BME280;4912;50.836;12.958;2023-02-28T10:03:36;99077.97;;;13.88;26.99
9746;BME280;4912;50.836;12.958;2023-02-28T10:06:14;99069.00;;;13.93;26.69
9746;BME280;4912;50.836;12.958;2023-02-28T10:08:54;99071.66;;;14.06;26.26
9746;BME280;4912;50.836;12.958;2023-02-28T10:11:29;99069.38;;;14.13;26.70
9746;BME280;4912;50.836;12.958;2023-02-28T10:14:06;99069.66;;;14.06;26.47
9746;BME280;4912;50.836;12.958;2023-02-28T10:16:47;99071.78;;;14.02;26.84
9746;BME280;4912;50.836;12.958;2023-02-28T10:19:23;99068.41;;;13.98;27.38
9746;BME280;4912;50.836;12.958;2023-02-28T10:22:02;99070.75;;;13.60;26.77
9746;BME280;4912;50.836;12.958;2023-02-28T10:24:39;99073.34;;;13.23;27.22
9746;BME280;4912;50.836;12.958;2023-02-28T10:27:15;99070.09;;;13.03;27.58
9746;BME280;4912;50.836;12.958;2023-02-28T10:29:51;99065.28;;;13.16;29.05
9746;BME280;4912;50.836;12.958;2023-02-28T10:32:27;99063.28;;;13.17;28.25
9746;BME280;4912;50.836;12.958;2023-02-28T10:35:06;99065.31;;;13.56;28.11
9746;BME280;4912;50.836;12.958;2023-02-28T10:37:42;99069.34;;;14.04;27.48
9746;BME280;4912;50.836;12.958;2023-02-28T10:40:28;99060.66;;;14.02;26.67
9746;BME280;4912;50.836;12.958;2023-02-28T10:43:04;99058.81;;;14.08;27.55
9746;BME280;4912;50.836;12.958;2023-02-28T10:45:35;99059.75;;;14.14;27.31
9746;BME280;4912;50.836;12.958;2023-02-28T10:48:30;99052.72;;;14.41;27.23
9746;BME280;4912;50.836;12.958;2023-02-28T10:51:04;99057.84;;;14.42;27.36
9746;BME280;4912;50.836;12.958;2023-02-28T10:53:38;99057.88;;;13.93;27.15
9746;BME280;4912;50.836;12.958;2023-02-28T10:56:28;99055.50;;;13.73;27.31
9746;BME280;4912;50.836;12.958;2023-02-28T10:59:01;99055.31;;;13.68;27.02
9746;BME280;4912;50.836;12.958;2023-02-28T11:01:38;99049.69;;;13.99;27.91
9746;BME280;4912;50.836;12.958;2023-02-28T11:04:32;99051.28;;;14.27;26.99
9746;BME280;4912;50.836;12.958;2023-02-28T11:07:18;99046.16;;;14.16;26.62
9746;BME280;4912;50.836;12.958;2023-02-28T11:09:54;99043.88;;;14.24;26.70
9746;BME280;4912;50.836;12.958;2023-02-28T11:12:28;99042.63;;;14.34;26.80
9746;BME280;4912;50.836;12.958;2023-02-28T11:15:17;99037.84;;;14.89;27.05
9746;BME280;4912;50.836;12.958;2023-02-28T11:17:56;99025.88;;;15.58;26.59
9746;BME280;4912;50.836;12.958;2023-02-28T11:20:33;99033.94;;;16.13;24.93
9746;BME280;4912;50.836;12.958;2023-02-28T11:23:05;99029.88;;;16.91;24.84
9746;BME280;4912;50.836;12.958;2023-02-28T11:25:47;99028.19;;;17.72;24.03
9746;BME280;4912;50.836;12.958;2023-02-28T11:28:26;99020.88;;;18.15;23.70
9746;BME280;4912;50.836;12.958;2023-02-28T11:31:05;99013.97;;;18.77;22.95
9746;BME280;4912;50.836;12.958;2023-02-28T11:33:45;99021.53;;;19.22;21.95
9746;BME280;4912;50.836;12.958;2023-02-28T11:36:23;99014.88;;;19.88;21.25
9746;BME280;4912;50.836;12.958;2023-02-28T11:38:56;99009.84;;;20.57;20.69
9746;BME280;4912;50.836;12.958;2023-02-28T11:41:50;99011.50;;;21.19;19.78
9746;BME280;4912;50.836;12.958;2023-02-28T11:44:53;99011.72;;;21.83;19.99
9746;BME280;4912;50.836;12.958;2023-02-28T11:47:37;99001.97;;;21.95;18.53
9746;BME280;4912;50.836;12.958;2023-02-28T11:50:22;99005.41;;;22.34;18.59
9746;BME280;4912;50.836;12.958;2023-02-28T11:53:12;99003.91;;;22.80;18.55
9746;BME280;4912;50.836;12.958;2023-02-28T11:55:49;99005.44;;;22.81;17.81
9746;BME280;4912;50.836;12.958;2023-02-28T11:58:35;98999.63;;;23.03;18.02
9746;BME280;4912;50.836;12.958;2023-02-28T12:01:31;99002.09;;;23.53;18.32
9746;BME280;4912;50.836;12.958;2023-02-28T12:04:17;99004.88;;;23.83;17.36
9746;BME280;4912;50.836;12.958;2023-02-28T12:07:00;98999.41;;;23.91;17.22
9746;BME280;4912;50.836;12.958;2023-02-28T12:09:50;98999.72;;;24.30;16.89
9746;BME280;4912;50.836;12.958;2023-02-28T12:12:37;98990.72;;;24.51;16.64
9746;BME280;4912;50.836;12.958;2023-02-28T12:18:27;98992.59;;;23.99;16.72
9746;BME280;4912;50.836;12.958;2023-02-28T12:21:13;98990.09;;;23.96;16.30
9746;BME280;4912;50.836;12.958;2023-02-28T12:24:10;98991.56;;;24.27;16.88
9746;BME280;4912;50.836;12.958;2023-02-28T12:27:08;98982.63;;;24.60;16.19
9746;BME280;4912;50.836;12.958;2023-02-28T12:29:46;98979.13;;;24.86;16.86
9746;BME280;4912;50.836;12.958;2023-02-28T12:32:23;98985.28;;;25.22;16.27
9746;BME280;4912;50.836;12.958;2023-02-28T12:35:06;98967.91;;;25.31;16.36
9746;BME280;4912;50.836;12.958;2023-02-28T12:37:45;98977.16;;;25.32;16.19
9746;BME280;4912;50.836;12.958;2023-02-28T12:40:21;98980.19;;;25.65;16.08
9746;BME280;4912;50.836;12.958;2023-02-28T12:42:58;98972.69;;;25.94;15.84
9746;BME280;4912;50.836;12.958;2023-02-28T12:45:40;98964.72;;;26.06;15.52
9746;BME280;4912;50.836;12.958;2023-02-28T12:48:17;98974.09;;;26.01;15.60
9746;BME280;4912;50.836;12.958;2023-02-28T12:50:50;98966.59;;;25.90;15.11
9746;BME280;4912;50.836;12.958;2023-02-28T12:53:26;98973.88;;;25.99;15.66
9746;BME280;4912;50.836;12.958;2023-02-28T12:56:10;98969.50;;;26.11;15.48
9746;BME280;4912;50.836;12.958;2023-02-28T12:58:50;98963.41;;;25.94;15.22
9746;BME280;4912;50.836;12.958;2023-02-28T13:01:38;98968.75;;;26.24;15.08
9746;BME280;4912;50.836;12.958;2023-02-28T13:07:54;98968.41;;;26.40;15.49
9746;BME280;4912;50.836;12.958;2023-02-28T13:10:42;98970.59;;;26.34;14.65
9746;BME280;4912;50.836;12.958;2023-02-28T13:13:16;98961.75;;;26.38;15.05
9746;BME280;4912;50.836;12.958;2023-02-28T13:16:03;98956.00;;;26.64;15.46
9746;BME280;4912;50.836;12.958;2023-02-28T13:18:37;98957.88;;;26.62;15.18
9746;BME280;4912;50.836;12.958;2023-02-28T13:21:21;98953.25;;;26.72;15.20
9746;BME280;4912;50.836;12.958;2023-02-28T13:24:01;98947.47;;;26.64;14.96
9746;BME280;4912;50.836;12.958;2023-02-28T13:30:00;98956.88;;;26.25;14.83
9746;BME280;4912;50.836;12.958;2023-02-28T13:32:37;98952.78;;;26.34;15.34
9746;BME280;4912;50.836;12.958;2023-02-28T13:38:37;98958.47;;;26.34;15.27
9746;BME280;4912;50.836;12.958;2023-02-28T13:44:15;98959.03;;;26.19;15.53
9746;BME280;4912;50.836;12.958;2023-02-28T13:47:23;98952.19;;;26.01;15.29
9746;BME280;4912;50.836;12.958;2023-02-28T13:50:26;98952.16;;;25.88;15.29
9746;BME280;4912;50.836;12.958;2023-02-28T13:56:27;98951.63;;;25.18;15.64
9746;BME280;4912;50.836;12.958;2023-02-28T13:59:16;98952.16;;;24.66;16.27
9746;BME280;4912;50.836;12.958;2023-02-28T14:02:01;98939.09;;;24.26;16.73
9746;BME280;4912;50.836;12.958;2023-02-28T14:04:54;98947.97;;;23.68;16.98
9746;BME280;4912;50.836;12.958;2023-02-28T14:07:38;98949.22;;;23.18;17.14
9746;BME280;4912;50.836;12.958;2023-02-28T14:10:23;98943.00;;;22.55;17.79
9746;BME280;4912;50.836;12.958;2023-02-28T14:13:03;98947.47;;;21.64;18.59
9746;BME280;4912;50.836;12.958;2023-02-28T14:15:47;98951.09;;;21.04;19.09
9746;BME280;4912;50.836;12.958;2023-02-28T14:18:27;98947.47;;;20.53;19.81
9746;BME280;4912;50.836;12.958;2023-02-28T14:21:08;98949.78;;;19.90;19.87
9746;BME280;4912;50.836;12.958;2023-02-28T14:24:03;98940.78;;;19.38;20.43
9746;BME280;4912;50.836;12.958;2023-02-28T14:30:26;98936.91;;;17.60;22.25